Time;durP1;ratioP1;P1;durP2;ratioP2;P2;SDS_P1;SDS_P2;PMS_P1;PMS_P2;Temp;Humidity;BMP_temperature;BMP_pressure;BME280_temperature;BME280_humidity;BME280_pressure;Samples;Min_cycle;Max_cycle;Signal;HPM_P1;HPM_P2
2023/06/19 00:02:26;;;;;;;33.60;27.90;;;;;;;-128.00;-1.00;-1.00;103616;1253;1002437;-75
2023/06/19 00:04:53;;;;;;;32.00;26.90;;;;;;;-128.00;-1.00;-1.00;103648;1252;1002378;-74
2023/06/19 00:07:21;;;;;;;37.90;26.90;;;;;;;-128.00;-1.00;-1.00;103604;1253;1002672;-76
2023/06/19 00:09:49;;;;;;;31.30;25.70;;;;;;;-128.00;-1.00;-1.00;103705;1255;1012778;-74
2023/06/19 00:12:16;;;;;;;37.00;27.20;;;;;;;-128.00;-1.00;-1.00;103702;1256;1002981;-75
2023/06/19 00:14:46;;;;;;;39.80;25.30;;;;;;;-128.00;-1.00;-1.00;103683;1253;1013774;-76
2023/06/19 00:17:16;;;;;;;32.10;25.10;;;;;;;-128.00;-1.00;-1.00;103529;1257;1002651;-75
2023/06/19 00:19:44;;;;;;;32.40;25.90;;;;;;;-128.00;-1.00;-1.00;103384;1253;1010920;-75
2023/06/19 00:22:11;;;;;;;33.30;25.10;;;;;;;-128.00;-1.00;-1.00;103649;1253;1002320;-76
2023/06/19 00:24:39;;;;;;;30.10;23.90;;;;;;;-128.00;-1.00;-1.00;103585;1255;1002415;-75
2023/06/19 00:27:06;;;;;;;32.70;25.40;;;;;;;-128.00;-1.00;-1.00;103602;1253;1002567;-75
2023/06/19 00:29:34;;;;;;;28.90;24.40;;;;;;;-128.00;-1.00;-1.00;103903;1253;1002501;-75
2023/06/19 00:32:01;;;;;;;26.80;23.70;;;;;;;-128.00;-1.00;-1.00;103623;1253;1002766;-75
2023/06/19 00:34:29;;;;;;;33.90;24.90;;;;;;;-128.00;-1.00;-1.00;103708;1256;1002365;-76
2023/06/19 00:36:57;;;;;;;33.40;24.60;;;;;;;-128.00;-1.00;-1.00;104072;1251;1012668;-74
2023/06/19 00:39:25;;;;;;;27.60;24.70;;;;;;;-128.00;-1.00;-1.00;103872;1256;1002542;-75
2023/06/19 00:41:52;;;;;;;30.40;26.30;;;;;;;-128.00;-1.00;-1.00;103628;1251;1002909;-75
2023/06/19 00:44:19;;;;;;;26.70;23.80;;;;;;;-128.00;-1.00;-1.00;103600;1251;1002763;-74
2023/06/19 00:46:46;;;;;;;32.10;25.40;;;;;;;-128.00;-1.00;-1.00;103645;1255;1002594;-75
2023/06/19 00:49:14;;;;;;;34.30;27.50;;;;;;;-128.00;-1.00;-1.00;103543;1256;1002482;-78
2023/06/19 00:51:41;;;;;;;32.30;25.90;;;;;;;-128.00;-1.00;-1.00;103583;1251;1004603;-74
2023/06/19 00:54:08;;;;;;;30.00;26.90;;;;;;;-128.00;-1.00;-1.00;103231;1253;1002665;-74
2023/06/19 00:56:36;;;;;;;35.10;29.30;;;;;;;-128.00;-1.00;-1.00;103236;1258;1003665;-74
2023/06/19 00:59:06;;;;;;;34.70;29.50;;;;;;;-128.00;-1.00;-1.00;103265;1259;1013178;-74
2023/06/19 01:01:32;;;;;;;35.00;28.30;;;;;;;-128.00;-1.00;-1.00;103512;1256;1012650;-75
2023/06/19 01:04:00;;;;;;;;;;;;;;;-128.00;-1.00;-1.00;103438;1253;1012671;-77
2023/06/19 01:06:37;;;;;;;40.40;29.10;;;;;;;-128.00;-1.00;-1.00;103524;1252;1002532;-76
2023/06/19 01:09:07;;;;;;;42.30;31.40;;;;;;;-128.00;-1.00;-1.00;103403;1256;1010717;-75
2023/06/19 01:11:38;;;;;;;37.60;31.10;;;;;;;-128.00;-1.00;-1.00;103530;1256;1012270;-75
2023/06/19 01:14:21;;;;;;;43.80;36.90;;;;;;;-128.00;-1.00;-1.00;103605;1253;1013272;-75
2023/06/19 01:16:48;;;;;;;44.30;32.50;;;;;;;-128.00;-1.00;-1.00;103520;1252;1012570;-74
2023/06/19 01:19:20;;;;;;;36.90;29.00;;;;;;;-128.00;-1.00;-1.00;103496;1253;1002784;-75
2023/06/19 01:21:47;;;;;;;34.10;26.50;;;;;;;-128.00;-1.00;-1.00;103518;1253;1010638;-76
2023/06/19 01:24:14;;;;;;;34.90;24.40;;;;;;;-128.00;-1.00;-1.00;103451;1253;1002591;-81
2023/06/19 01:26:40;;;;;;;28.60;23.80;;;;;;;-128.00;-1.00;-1.00;103464;1253;1004751;-73
2023/06/19 01:29:08;;;;;;;28.60;22.80;;;;;;;-128.00;-1.00;-1.00;103378;1256;1002776;-74
2023/06/19 01:31:48;;;;;;;24.40;21.90;;;;;;;-128.00;-1.00;-1.00;103485;1251;1009949;-73
2023/06/19 01:34:14;;;;;;;27.90;20.60;;;;;;;-128.00;-1.00;-1.00;103527;1252;1011106;-74
2023/06/19 01:36:41;;;;;;;24.30;21.50;;;;;;;-128.00;-1.00;-1.00;103248;1257;1002308;-73
2023/06/19 01:39:08;;;;;;;27.40;22.90;;;;;;;-128.00;-1.00;-1.00;103234;1251;1002887;-74
2023/06/19 01:41:35;;;;;;;24.20;21.60;;;;;;;-128.00;-1.00;-1.00;103203;1253;1003352;-75
2023/06/19 01:44:03;;;;;;;24.10;20.90;;;;;;;-128.00;-1.00;-1.00;103247;1256;1002571;-74
2023/06/19 01:46:30;;;;;;;31.60;23.20;;;;;;;-128.00;-1.00;-1.00;103517;1251;1003288;-74
2023/06/19 01:48:57;;;;;;;24.70;22.00;;;;;;;-128.00;-1.00;-1.00;103522;1256;1003071;-73
2023/06/19 01:51:25;;;;;;;29.10;22.40;;;;;;;-128.00;-1.00;-1.00;103500;1256;1002436;-73
2023/06/19 01:53:52;;;;;;;29.50;23.40;;;;;;;-128.00;-1.00;-1.00;103503;1251;1002773;-71
2023/06/19 01:56:18;;;;;;;27.90;22.20;;;;;;;-128.00;-1.00;-1.00;103465;1251;1002686;-73
2023/06/19 01:58:45;;;;;;;24.90;22.30;;;;;;;-128.00;-1.00;-1.00;103239;1251;1002716;-73
2023/06/19 02:01:12;;;;;;;25.30;22.60;;;;;;;-128.00;-1.00;-1.00;103509;1256;1002347;-73
2023/06/19 02:03:39;;;;;;;31.90;24.20;;;;;;;-128.00;-1.00;-1.00;103458;1256;1002844;-73
2023/06/19 02:06:07;;;;;;;31.30;23.30;;;;;;;-128.00;-1.00;-1.00;103506;1251;1002928;-74
2023/06/19 02:08:33;;;;;;;27.20;24.40;;;;;;;-128.00;-1.00;-1.00;103492;1251;1002958;-73
2023/06/19 02:11:01;;;;;;;27.10;23.70;;;;;;;-128.00;-1.00;-1.00;103504;1251;1003185;-71
2023/06/19 02:13:28;;;;;;;34.20;26.00;;;;;;;-128.00;-1.00;-1.00;103480;1256;1002881;-72
2023/06/19 02:15:54;;;;;;;33.20;26.60;;;;;;;-128.00;-1.00;-1.00;103478;1251;1002945;-73
2023/06/19 02:18:23;;;;;;;31.50;27.60;;;;;;;-128.00;-1.00;-1.00;103459;1251;1015318;-72
2023/06/19 02:20:51;;;;;;;33.50;30.00;;;;;;;-128.00;-1.00;-1.00;103489;1254;1004915;-73
2023/06/19 02:23:18;;;;;;;35.90;28.90;;;;;;;-128.00;-1.00;-1.00;103482;1251;1003330;-73
2023/06/19 02:25:45;;;;;;;31.40;27.80;;;;;;;-128.00;-1.00;-1.00;103480;1251;1002879;-74
2023/06/19 02:28:11;;;;;;;34.40;26.30;;;;;;;-128.00;-1.00;-1.00;103536;1253;1005012;-74
2023/06/19 02:30:39;;;;;;;31.60;27.60;;;;;;;-128.00;-1.00;-1.00;103550;1251;1002551;-73
2023/06/19 02:33:05;;;;;;;32.40;28.50;;;;;;;-128.00;-1.00;-1.00;103553;1251;1004115;-73
2023/06/19 02:35:32;;;;;;;36.40;27.30;;;;;;;-128.00;-1.00;-1.00;103546;1251;1002991;-73
2023/06/19 02:37:59;;;;;;;38.90;30.20;;;;;;;-128.00;-1.00;-1.00;103585;1257;1002792;-72
2023/06/19 02:40:26;;;;;;;36.10;28.60;;;;;;;-128.00;-1.00;-1.00;103543;1256;1002424;-75
2023/06/19 02:42:54;;;;;;;41.10;28.80;;;;;;;-128.00;-1.00;-1.00;103519;1251;1002858;-73
2023/06/19 02:45:20;;;;;;;34.10;27.30;;;;;;;-128.00;-1.00;-1.00;103403;1251;1003204;-73
2023/06/19 02:47:47;;;;;;;30.00;26.60;;;;;;;-128.00;-1.00;-1.00;103491;1256;1002556;-73
2023/06/19 02:50:14;;;;;;;34.60;28.30;;;;;;;-128.00;-1.00;-1.00;103527;1251;1004159;-72
2023/06/19 02:52:41;;;;;;;31.50;26.90;;;;;;;-128.00;-1.00;-1.00;103519;1256;1002766;-73
2023/06/19 02:55:08;;;;;;;32.90;27.60;;;;;;;-128.00;-1.00;-1.00;103530;1256;1002622;-73
2023/06/19 02:57:34;;;;;;;28.80;24.90;;;;;;;-128.00;-1.00;-1.00;103492;1251;1002581;-82
2023/06/19 03:00:05;;;;;;;31.60;26.00;;;;;;;-128.00;-1.00;-1.00;103512;1255;1002822;-74
2023/06/19 03:02:32;;;;;;;32.30;24.60;;;;;;;-128.00;-1.00;-1.00;103544;1257;1013752;-79
2023/06/19 03:05:00;;;;;;;35.00;26.30;;;;;;;-128.00;-1.00;-1.00;103518;1251;1002406;-72
2023/06/19 03:07:28;;;;;;;36.20;24.50;;;;;;;-128.00;-1.00;-1.00;103215;1251;1004176;-74
2023/06/19 03:09:55;;;;;;;;;;;;;;;-128.00;-1.00;-1.00;103479;1251;1009721;-76
2023/06/19 03:12:22;;;;;;;28.20;23.80;;;;;;;-128.00;-1.00;-1.00;103401;1251;1002636;-73
2023/06/19 03:14:48;;;;;;;29.50;24.80;;;;;;;-128.00;-1.00;-1.00;103343;1256;1002923;-72
2023/06/19 03:17:15;;;;;;;28.90;23.70;;;;;;;-128.00;-1.00;-1.00;103384;1256;1002643;-75
2023/06/19 03:19:42;;;;;;;28.10;22.80;;;;;;;-128.00;-1.00;-1.00;103387;1254;1002277;-73
2023/06/19 03:22:08;;;;;;;40.00;25.50;;;;;;;-128.00;-1.00;-1.00;103512;1251;1002759;-74
2023/06/19 03:24:35;;;;;;;38.80;23.70;;;;;;;-128.00;-1.00;-1.00;103524;1251;1003237;-74
2023/06/19 03:27:16;;;;;;;26.10;22.60;;;;;;;-128.00;-1.00;-1.00;103560;1251;1013561;-74
2023/06/19 03:29:42;;;;;;;25.90;23.20;;;;;;;-128.00;-1.00;-1.00;103322;1255;1002612;-72
2023/06/19 03:32:11;;;;;;;28.60;23.10;;;;;;;-128.00;-1.00;-1.00;103145;1253;1013772;-74
2023/06/19 03:34:39;;;;;;;27.20;23.90;;;;;;;-128.00;-1.00;-1.00;103581;1251;1002636;-72
2023/06/19 03:37:07;;;;;;;30.10;23.90;;;;;;;-128.00;-1.00;-1.00;103456;1253;1002301;-73
2023/06/19 03:39:34;;;;;;;32.30;24.90;;;;;;;-128.00;-1.00;-1.00;103480;1256;1002517;-73
2023/06/19 03:42:07;;;;;;;30.70;23.50;;;;;;;-128.00;-1.00;-1.00;103487;1251;1015555;-73
2023/06/19 03:44:34;;;;;;;32.70;23.70;;;;;;;-128.00;-1.00;-1.00;103479;1251;1012140;-74
2023/06/19 03:47:01;;;;;;;31.20;25.10;;;;;;;-128.00;-1.00;-1.00;103512;1251;1002822;-72
2023/06/19 03:49:28;;;;;;;28.50;22.80;;;;;;;-128.00;-1.00;-1.00;103517;1251;1002695;-74
2023/06/19 03:51:55;;;;;;;28.60;22.80;;;;;;;-128.00;-1.00;-1.00;103664;1251;1002570;-73
2023/06/19 03:54:23;;;;;;;27.20;24.20;;;;;;;-128.00;-1.00;-1.00;103329;1256;1004784;-74
2023/06/19 03:56:50;;;;;;;29.80;23.60;;;;;;;-128.00;-1.00;-1.00;103558;1251;1002748;-76
2023/06/19 03:59:17;;;;;;;27.20;24.30;;;;;;;-128.00;-1.00;-1.00;103582;1251;1003270;-73
2023/06/19 04:01:44;;;;;;;32.40;25.90;;;;;;;-128.00;-1.00;-1.00;103396;1252;1002846;-73
2023/06/19 04:04:10;;;;;;;26.00;22.50;;;;;;;-128.00;-1.00;-1.00;103607;1256;1003032;-71
2023/06/19 04:06:37;;;;;;;31.40;24.80;;;;;;;-128.00;-1.00;-1.00;103410;1256;1002586;-73
2023/06/19 04:09:06;;;;;;;24.70;22.10;;;;;;;-128.00;-1.00;-1.00;103498;1251;1013208;-74
2023/06/19 04:11:33;;;;;;;27.90;24.70;;;;;;;-128.00;-1.00;-1.00;103527;1251;1002373;-73
2023/06/19 04:14:00;;;;;;;26.70;22.20;;;;;;;-128.00;-1.00;-1.00;103261;1251;1002613;-73
2023/06/19 04:16:29;;;;;;;25.30;22.70;;;;;;;-128.00;-1.00;-1.00;103516;1256;1013540;-74
2023/06/19 04:18:56;;;;;;;27.70;23.20;;;;;;;-128.00;-1.00;-1.00;103356;1254;1002721;-76
2023/06/19 04:21:22;;;;;;;24.20;20.90;;;;;;;-128.00;-1.00;-1.00;103433;1253;1002409;-72
2023/06/19 04:23:50;;;;;;;23.90;20.90;;;;;;;-128.00;-1.00;-1.00;103476;1251;1002601;-74
2023/06/19 04:26:18;;;;;;;23.10;20.60;;;;;;;-128.00;-1.00;-1.00;103384;1251;1002796;-73
2023/06/19 04:28:44;;;;;;;20.80;18.80;;;;;;;-128.00;-1.00;-1.00;103459;1251;1013813;-72
2023/06/19 04:31:11;;;;;;;20.70;18.60;;;;;;;-128.00;-1.00;-1.00;103274;1257;1002342;-79
2023/06/19 04:33:40;;;;;;;21.10;18.70;;;;;;;-128.00;-1.00;-1.00;103105;1253;1002197;-73
2023/06/19 04:36:09;;;;;;;20.40;18.20;;;;;;;-128.00;-1.00;-1.00;103524;1251;1010533;-73
2023/06/19 04:38:37;;;;;;;21.40;19.10;;;;;;;-128.00;-1.00;-1.00;103502;1251;1010772;-73
2023/06/19 04:41:03;;;;;;;21.30;17.10;;;;;;;-128.00;-1.00;-1.00;103444;1251;1002569;-76
2023/06/19 04:43:33;;;;;;;;;;;;;;;-128.00;-1.00;-1.00;103556;1256;1012767;-73
2023/06/19 04:46:00;;;;;;;19.70;17.50;;;;;;;-128.00;-1.00;-1.00;103540;1251;1013035;-76
2023/06/19 04:48:27;;;;;;;19.90;17.80;;;;;;;-128.00;-1.00;-1.00;103205;1251;1003212;-72
2023/06/19 04:50:55;;;;;;;20.10;17.90;;;;;;;-128.00;-1.00;-1.00;103403;1251;1002772;-74
2023/06/19 04:53:23;;;;;;;21.10;18.70;;;;;;;-128.00;-1.00;-1.00;103513;1251;1012596;-74
2023/06/19 04:55:50;;;;;;;27.20;18.50;;;;;;;-128.00;-1.00;-1.00;103467;1255;1002871;-74
2023/06/19 04:58:16;;;;;;;29.30;19.30;;;;;;;-128.00;-1.00;-1.00;103486;1253;1003080;-72
2023/06/19 05:00:43;;;;;;;21.50;18.40;;;;;;;-128.00;-1.00;-1.00;103523;1252;1002360;-72
2023/06/19 05:03:13;;;;;;;23.70;19.10;;;;;;;-128.00;-1.00;-1.00;103446;1253;1002779;-74
2023/06/19 05:05:40;;;;;;;23.40;18.50;;;;;;;-128.00;-1.00;-1.00;103467;1255;1012948;-73
2023/06/19 05:08:07;;;;;;;22.50;19.20;;;;;;;-128.00;-1.00;-1.00;103501;1255;1002928;-73
2023/06/19 05:10:34;;;;;;;20.50;18.20;;;;;;;-128.00;-1.00;-1.00;103473;1253;1003014;-74
2023/06/19 05:13:01;;;;;;;26.20;18.50;;;;;;;-128.00;-1.00;-1.00;103492;1253;1002785;-76
2023/06/19 05:15:28;;;;;;;18.70;16.80;;;;;;;-128.00;-1.00;-1.00;103537;1253;1002858;-74
2023/06/19 05:17:55;;;;;;;19.20;16.80;;;;;;;-128.00;-1.00;-1.00;103513;1255;1003036;-74
2023/06/19 05:20:22;;;;;;;21.60;17.10;;;;;;;-128.00;-1.00;-1.00;103452;1259;1003253;-74
2023/06/19 05:22:49;;;;;;;31.90;18.00;;;;;;;-128.00;-1.00;-1.00;103633;1253;1002771;-74
2023/06/19 05:25:16;;;;;;;19.30;17.30;;;;;;;-128.00;-1.00;-1.00;103536;1253;1002835;-73
2023/06/19 05:27:43;;;;;;;18.50;16.60;;;;;;;-128.00;-1.00;-1.00;103621;1252;1003127;-75
2023/06/19 05:30:10;;;;;;;17.80;16.00;;;;;;;-128.00;-1.00;-1.00;103584;1253;1002575;-74
2023/06/19 05:32:38;;;;;;;19.00;17.00;;;;;;;-128.00;-1.00;-1.00;103492;1256;1013176;-73
2023/06/19 05:35:06;;;;;;;19.60;15.10;;;;;;;-128.00;-1.00;-1.00;103485;1258;1003250;-74
2023/06/19 05:37:33;;;;;;;21.50;18.10;;;;;;;-128.00;-1.00;-1.00;103731;1256;1002522;-74
2023/06/19 05:39:59;;;;;;;18.40;16.50;;;;;;;-128.00;-1.00;-1.00;103737;1253;1002448;-77
2023/06/19 05:42:26;;;;;;;18.70;16.80;;;;;;;-128.00;-1.00;-1.00;103691;1253;1003117;-73
2023/06/19 05:44:53;;;;;;;17.70;15.40;;;;;;;-128.00;-1.00;-1.00;103650;1256;1002817;-76
2023/06/19 05:47:20;;;;;;;19.40;16.10;;;;;;;-128.00;-1.00;-1.00;103588;1253;1002238;-74
2023/06/19 05:49:47;;;;;;;19.40;17.50;;;;;;;-128.00;-1.00;-1.00;103647;1252;1002872;-74
2023/06/19 05:52:14;;;;;;;18.10;16.30;;;;;;;-128.00;-1.00;-1.00;103573;1253;1002890;-73
2023/06/19 05:54:40;;;;;;;18.70;15.80;;;;;;;-128.00;-1.00;-1.00;103525;1253;1002890;-74
2023/06/19 05:57:07;;;;;;;28.80;17.20;;;;;;;-128.00;-1.00;-1.00;103522;1255;1002832;-78
2023/06/19 05:59:35;;;;;;;16.90;15.40;;;;;;;-128.00;-1.00;-1.00;103455;1253;1002811;-77
2023/06/19 06:02:03;;;;;;;17.70;15.70;;;;;;;-128.00;-1.00;-1.00;103489;1253;1003201;-72
2023/06/19 06:04:32;;;;;;;;;;;;;;;-128.00;-1.00;-1.00;103525;1253;1002150;-73
2023/06/19 06:06:59;;;;;;;17.10;15.50;;;;;;;-128.00;-1.00;-1.00;103490;1257;1013568;-75
2023/06/19 06:09:27;;;;;;;25.90;20.80;;;;;;;-128.00;-1.00;-1.00;103521;1255;1003108;-74
2023/06/19 06:11:53;;;;;;;18.80;16.90;;;;;;;-128.00;-1.00;-1.00;103353;1257;1002978;-73
2023/06/19 06:14:20;;;;;;;20.80;18.50;;;;;;;-128.00;-1.00;-1.00;103502;1252;1002686;-74
2023/06/19 06:16:47;;;;;;;18.10;16.20;;;;;;;-128.00;-1.00;-1.00;103555;1256;1002279;-75
2023/06/19 06:19:13;;;;;;;20.80;18.60;;;;;;;-128.00;-1.00;-1.00;103490;1254;1002719;-74
2023/06/19 06:21:40;;;;;;;18.10;15.90;;;;;;;-128.00;-1.00;-1.00;103610;1255;1002499;-73
2023/06/19 06:24:07;;;;;;;16.80;15.10;;;;;;;-128.00;-1.00;-1.00;103464;1252;1002626;-73
2023/06/19 06:26:35;;;;;;;17.90;16.20;;;;;;;-128.00;-1.00;-1.00;103472;1258;1002195;-78
2023/06/19 06:29:02;;;;;;;16.70;15.00;;;;;;;-128.00;-1.00;-1.00;103499;1253;1003141;-72
2023/06/19 06:31:29;;;;;;;18.00;15.50;;;;;;;-128.00;-1.00;-1.00;103494;1256;1003248;-73
2023/06/19 06:33:55;;;;;;;16.90;15.40;;;;;;;-128.00;-1.00;-1.00;103540;1255;1003255;-73
2023/06/19 06:36:24;;;;;;;20.00;15.70;;;;;;;-128.00;-1.00;-1.00;103277;1253;1003251;-71
2023/06/19 06:39:02;;;;;;;17.00;15.20;;;;;;;-128.00;-1.00;-1.00;103380;1253;1010518;-75
2023/06/19 06:41:30;;;;;;;17.20;15.50;;;;;;;-128.00;-1.00;-1.00;103571;1252;1002803;-74
2023/06/19 06:43:56;;;;;;;17.00;15.40;;;;;;;-128.00;-1.00;-1.00;103617;1256;1002574;-71
2023/06/19 06:46:23;;;;;;;16.70;14.90;;;;;;;-128.00;-1.00;-1.00;103714;1255;1002760;-72
2023/06/19 06:48:50;;;;;;;21.20;15.30;;;;;;;-128.00;-1.00;-1.00;103756;1253;1002533;-74
2023/06/19 06:51:17;;;;;;;17.60;15.60;;;;;;;-128.00;-1.00;-1.00;103569;1253;1002588;-74
2023/06/19 06:53:44;;;;;;;16.60;14.70;;;;;;;-128.00;-1.00;-1.00;103709;1253;1002454;-72
2023/06/19 06:56:11;;;;;;;16.50;14.80;;;;;;;-128.00;-1.00;-1.00;103574;1255;1002426;-73
2023/06/19 06:58:39;;;;;;;14.30;13.00;;;;;;;-128.00;-1.00;-1.00;103491;1255;1003193;-72
2023/06/19 07:01:06;;;;;;;16.50;14.80;;;;;;;-128.00;-1.00;-1.00;103571;1253;1003126;-74
2023/06/19 07:03:34;;;;;;;18.30;15.80;;;;;;;-128.00;-1.00;-1.00;103600;1253;1010871;-73
2023/06/19 07:06:02;;;;;;;17.30;15.50;;;;;;;-128.00;-1.00;-1.00;103298;1252;1002351;-75
2023/06/19 07:08:29;;;;;;;17.50;15.70;;;;;;;-128.00;-1.00;-1.00;103452;1256;1003235;-72
2023/06/19 07:10:57;;;;;;;15.40;13.90;;;;;;;-128.00;-1.00;-1.00;103291;1259;1002759;-73
2023/06/19 07:13:24;;;;;;;18.10;14.20;;;;;;;-128.00;-1.00;-1.00;103496;1253;1002799;-74
2023/06/19 07:15:51;;;;;;;23.20;15.10;;;;;;;-128.00;-1.00;-1.00;103472;1253;1003000;-74
2023/06/19 07:18:18;;;;;;;15.90;14.20;;;;;;;-128.00;-1.00;-1.00;103442;1253;1002574;-71
2023/06/19 07:20:45;;;;;;;15.30;13.70;;;;;;;-128.00;-1.00;-1.00;103455;1255;1003080;-73
2023/06/19 07:23:12;;;;;;;16.20;14.50;;;;;;;-128.00;-1.00;-1.00;103511;1255;1002711;-74
2023/06/19 07:25:39;;;;;;;16.40;13.10;;;;;;;-128.00;-1.00;-1.00;103507;1253;1002838;-72
2023/06/19 07:28:05;;;;;;;16.00;14.40;;;;;;;-128.00;-1.00;-1.00;103246;1252;1002329;-74
2023/06/19 07:30:32;;;;;;;17.50;15.40;;;;;;;-128.00;-1.00;-1.00;103441;1253;1002610;-74
2023/06/19 07:32:59;;;;;;;17.60;15.90;;;;;;;-128.00;-1.00;-1.00;103570;1257;1002424;-74
2023/06/19 07:35:26;;;;;;;15.90;14.10;;;;;;;-128.00;-1.00;-1.00;103513;1256;1002786;-72
2023/06/19 07:37:52;;;;;;;16.20;14.60;;;;;;;-128.00;-1.00;-1.00;103227;1251;1003014;-73
2023/06/19 07:40:19;;;;;;;20.30;16.70;;;;;;;-128.00;-1.00;-1.00;103521;1251;1002483;-74
2023/06/19 07:42:46;;;;;;;18.20;14.70;;;;;;;-128.00;-1.00;-1.00;103480;1251;1004889;-75
2023/06/19 07:45:13;;;;;;;16.90;15.10;;;;;;;-128.00;-1.00;-1.00;103522;1257;1002539;-73
2023/06/19 07:47:40;;;;;;;;;;;;;;;-128.00;-1.00;-1.00;103597;1256;1002713;-75
2023/06/19 07:50:07;;;;;;;17.20;15.30;;;;;;;-128.00;-1.00;-1.00;103516;1251;1002597;-74
2023/06/19 07:52:34;;;;;;;17.50;14.50;;;;;;;-128.00;-1.00;-1.00;103524;1251;1002561;-72
2023/06/19 07:55:01;;;;;;;15.30;13.70;;;;;;;-128.00;-1.00;-1.00;103589;1251;1002480;-74
2023/06/19 07:57:28;;;;;;;18.20;14.00;;;;;;;-128.00;-1.00;-1.00;103561;1256;1002706;-72
2023/06/19 07:59:55;;;;;;;14.80;13.50;;;;;;;-128.00;-1.00;-1.00;103555;1256;1002744;-75
2023/06/19 08:02:22;;;;;;;17.80;14.70;;;;;;;-128.00;-1.00;-1.00;103528;1251;1002729;-70
2023/06/19 08:04:49;;;;;;;16.30;14.60;;;;;;;-128.00;-1.00;-1.00;103523;1251;1002732;-74
2023/06/19 08:07:16;;;;;;;15.00;13.40;;;;;;;-128.00;-1.00;-1.00;103591;1251;1002688;-73
2023/06/19 08:09:43;;;;;;;15.10;13.80;;;;;;;-128.00;-1.00;-1.00;103462;1256;1002706;-72
2023/06/19 08:12:09;;;;;;;15.50;14.00;;;;;;;-128.00;-1.00;-1.00;103528;1252;1003327;-77
2023/06/19 08:14:38;;;;;;;19.70;14.10;;;;;;;-128.00;-1.00;-1.00;103531;1251;1003178;-72
2023/06/19 08:17:05;;;;;;;14.90;13.50;;;;;;;-128.00;-1.00;-1.00;103517;1251;1002832;-73
2023/06/19 08:19:32;;;;;;;;;;;;;;;-128.00;-1.00;-1.00;103651;1251;1002667;-72
2023/06/19 08:21:58;;;;;;;15.60;13.50;;;;;;;-128.00;-1.00;-1.00;103463;1251;1004718;-74
2023/06/19 08:24:25;;;;;;;18.00;12.50;;;;;;;-128.00;-1.00;-1.00;103511;1251;1002854;-73
2023/06/19 08:26:52;;;;;;;14.20;12.80;;;;;;;-128.00;-1.00;-1.00;103542;1257;1002361;-73
2023/06/19 08:29:19;;;;;;;16.00;13.30;;;;;;;-128.00;-1.00;-1.00;103592;1251;1002430;-73
2023/06/19 08:31:46;;;;;;;17.20;11.80;;;;;;;-128.00;-1.00;-1.00;103459;1253;1002432;-73
2023/06/19 08:34:13;;;;;;;15.40;13.10;;;;;;;-128.00;-1.00;-1.00;103461;1256;1002343;-74
2023/06/19 08:36:39;;;;;;;15.00;13.30;;;;;;;-128.00;-1.00;-1.00;103507;1256;1004552;-73
2023/06/19 08:39:08;;;;;;;14.80;12.40;;;;;;;-128.00;-1.00;-1.00;103500;1256;1002778;-73
2023/06/19 08:41:38;;;;;;;13.80;12.30;;;;;;;-128.00;-1.00;-1.00;103501;1256;1009799;-73
2023/06/19 08:44:05;;;;;;;17.60;14.10;;;;;;;-128.00;-1.00;-1.00;103546;1253;1011059;-73
2023/06/19 08:46:32;;;;;;;19.30;12.70;;;;;;;-128.00;-1.00;-1.00;103562;1256;1002766;-72
2023/06/19 08:49:00;;;;;;;13.20;12.00;;;;;;;-128.00;-1.00;-1.00;103261;1252;1002614;-72
2023/06/19 08:51:28;;;;;;;14.20;12.80;;;;;;;-128.00;-1.00;-1.00;103272;1253;1002779;-74
2023/06/19 08:53:56;;;;;;;25.10;12.90;;;;;;;-128.00;-1.00;-1.00;103338;1252;1002901;-74
2023/06/19 08:56:23;;;;;;;13.50;11.30;;;;;;;-128.00;-1.00;-1.00;103616;1251;1003171;-75
2023/06/19 08:58:49;;;;;;;14.50;11.70;;;;;;;-128.00;-1.00;-1.00;103695;1251;1004190;-74
2023/06/19 09:01:18;;;;;;;16.10;12.20;;;;;;;-128.00;-1.00;-1.00;103653;1256;1002792;-74
2023/06/19 09:03:46;;;;;;;12.90;11.80;;;;;;;-128.00;-1.00;-1.00;103615;1251;1013290;-73
2023/06/19 09:06:16;;;;;;;13.40;12.10;;;;;;;-128.00;-1.00;-1.00;103379;1251;1010862;-72
2023/06/19 09:08:44;;;;;;;15.30;12.10;;;;;;;-128.00;-1.00;-1.00;103563;1257;1010614;-73
2023/06/19 09:11:11;;;;;;;13.10;11.70;;;;;;;-128.00;-1.00;-1.00;103519;1251;1002265;-74
2023/06/19 09:13:38;;;;;;;14.00;12.70;;;;;;;-128.00;-1.00;-1.00;103523;1251;1002511;-74
2023/06/19 09:16:06;;;;;;;13.50;12.30;;;;;;;-128.00;-1.00;-1.00;103241;1251;1002387;-75
2023/06/19 09:18:45;;;;;;;13.10;11.60;;;;;;;-128.00;-1.00;-1.00;103259;1251;1011309;-76
2023/06/19 09:21:18;;;;;;;18.30;11.80;;;;;;;-128.00;-1.00;-1.00;103251;1258;1011009;-75
2023/06/19 09:23:46;;;;;;;12.50;11.00;;;;;;;-128.00;-1.00;-1.00;103269;1253;1013562;-76
2023/06/19 09:26:17;;;;;;;13.00;11.70;;;;;;;-128.00;-1.00;-1.00;103558;1256;1012302;-74
2023/06/19 09:28:44;;;;;;;12.60;11.30;;;;;;;-128.00;-1.00;-1.00;103523;1254;1013413;-74
2023/06/19 09:31:11;;;;;;;14.00;11.70;;;;;;;-128.00;-1.00;-1.00;103521;1253;1002792;-73
2023/06/19 09:33:39;;;;;;;12.90;11.60;;;;;;;-128.00;-1.00;-1.00;103544;1251;1002685;-75
2023/06/19 09:36:06;;;;;;;13.60;12.10;;;;;;;-128.00;-1.00;-1.00;103247;1259;1012522;-73
2023/06/19 09:38:34;;;;;;;;;;;;;;;-128.00;-1.00;-1.00;103508;1256;1002672;-75
2023/06/19 09:41:03;;;;;;;13.00;11.80;;;;;;;-128.00;-1.00;-1.00;103583;1254;1013148;-72
2023/06/19 09:43:42;;;;;;;14.00;11.30;;;;;;;-128.00;-1.00;-1.00;103609;1253;1002897;-71
2023/06/19 09:46:09;;;;;;;12.50;11.20;;;;;;;-128.00;-1.00;-1.00;103547;1251;1011872;-73
2023/06/19 09:48:43;;;;;;;17.00;12.60;;;;;;;-128.00;-1.00;-1.00;103415;1253;1002550;-80
2023/06/19 09:51:33;;;;;;;16.00;12.40;;;;;;;-128.00;-1.00;-1.00;103663;1256;1012387;-74
2023/06/19 09:54:02;;;;;;;13.60;12.00;;;;;;;-128.00;-1.00;-1.00;103223;1256;1013586;-73
2023/06/19 09:56:29;;;;;;;13.60;12.00;;;;;;;-128.00;-1.00;-1.00;103230;1257;1010129;-72
2023/06/19 09:59:02;;;;;;;13.40;10.70;;;;;;;-128.00;-1.00;-1.00;103174;1257;1002613;-77
2023/06/19 10:01:30;;;;;;;14.70;11.00;;;;;;;-128.00;-1.00;-1.00;103240;1261;1013026;-75
2023/06/19 10:04:07;;;;;;;12.30;11.10;;;;;;;-128.00;-1.00;-1.00;103180;1259;1002437;-74
2023/06/19 10:06:43;;;;;;;12.70;11.40;;;;;;;-128.00;-1.00;-1.00;103243;1257;1013420;-74
2023/06/19 10:09:10;;;;;;;13.50;12.10;;;;;;;-128.00;-1.00;-1.00;103047;1257;1010560;-73
2023/06/19 10:11:50;;;;;;;12.60;11.30;;;;;;;-128.00;-1.00;-1.00;103174;1257;1003021;-73
2023/06/19 10:14:21;;;;;;;13.10;11.80;;;;;;;-128.00;-1.00;-1.00;103139;1257;1013373;-74
2023/06/19 10:16:48;;;;;;;13.30;11.60;;;;;;;-128.00;-1.00;-1.00;103305;1259;1012650;-74
2023/06/19 10:19:18;;;;;;;12.40;11.00;;;;;;;-128.00;-1.00;-1.00;103158;1259;1002044;-74
2023/06/19 10:21:49;;;;;;;13.60;10.80;;;;;;;-128.00;-1.00;-1.00;103210;1262;1010437;-73
2023/06/19 10:24:18;;;;;;;12.40;11.10;;;;;;;-128.00;-1.00;-1.00;103191;1257;1010843;-74
2023/06/19 10:27:01;;;;;;;15.50;10.70;;;;;;;-128.00;-1.00;-1.00;103483;1256;1012131;-74
2023/06/19 10:29:41;;;;;;;12.40;11.20;;;;;;;-128.00;-1.00;-1.00;103372;1260;1011768;-73
2023/06/19 10:32:13;;;;;;;18.60;11.30;;;;;;;-128.00;-1.00;-1.00;103726;1258;1013272;-73
2023/06/19 10:34:41;;;;;;;11.60;10.40;;;;;;;-128.00;-1.00;-1.00;103562;1251;1002982;-74
2023/06/19 10:37:08;;;;;;;12.80;11.00;;;;;;;-128.00;-1.00;-1.00;103225;1257;1003258;-74
2023/06/19 10:39:34;;;;;;;11.20;10.10;;;;;;;-128.00;-1.00;-1.00;103166;1262;1002501;-74
2023/06/19 10:42:07;;;;;;;11.70;10.50;;;;;;;-128.00;-1.00;-1.00;103214;1257;1016392;-75
2023/06/19 10:44:34;;;;;;;10.80;9.80;;;;;;;-128.00;-1.00;-1.00;103196;1259;1012294;-76
2023/06/19 10:47:01;;;;;;;10.90;9.90;;;;;;;-128.00;-1.00;-1.00;103178;1257;1002186;-78
2023/06/19 10:49:28;;;;;;;11.30;10.10;;;;;;;-128.00;-1.00;-1.00;103174;1257;1002913;-75
2023/06/19 10:51:58;;;;;;;11.90;10.60;;;;;;;-128.00;-1.00;-1.00;103261;1262;1003021;-74
2023/06/19 10:54:28;;;;;;;13.50;10.50;;;;;;;-128.00;-1.00;-1.00;103274;1260;1013453;-74
2023/06/19 10:56:55;;;;;;;12.20;9.80;;;;;;;-128.00;-1.00;-1.00;103252;1263;1013814;-73
2023/06/19 10:59:21;;;;;;;13.20;10.50;;;;;;;-128.00;-1.00;-1.00;103166;1257;1002781;-72
2023/06/19 11:01:51;;;;;;;12.70;10.00;;;;;;;-128.00;-1.00;-1.00;103180;1257;1004168;-74
2023/06/19 11:04:18;;;;;;;15.10;10.70;;;;;;;-128.00;-1.00;-1.00;103208;1260;1013178;-72
2023/06/19 11:06:46;;;;;;;11.00;9.90;;;;;;;-128.00;-1.00;-1.00;103261;1260;1002747;-75
2023/06/19 11:09:13;;;;;;;10.70;9.70;;;;;;;-128.00;-1.00;-1.00;103690;1251;1002898;-73